Time;durP1;ratioP1;P1;durP2;ratioP2;P2;SDS_P1;SDS_P2;PMS_P1;PMS_P2;Temp;Humidity;BMP_temperature;BMP_pressure;BME280_temperature;BME280_humidity;BME280_pressure;Samples;Min_cycle;Max_cycle;Signal;HPM_P1;HPM_P2
2022/08/04 00:00:28;;;;;;;9.05;4.90;;;;;;;29.02;39.06;101078.38;5026720;28;96728;-71
2022/08/04 00:03:13;;;;;;;10.65;5.50;;;;;;;28.77;39.93;101086.44;5030604;27;99463;-71
2022/08/04 00:05:53;;;;;;;8.25;4.95;;;;;;;28.78;40.08;101077.28;5028554;28;98751;-71
2022/08/04 00:08:29;;;;;;;6.63;5.00;;;;;;;29.00;39.25;101085.88;5026507;27;96861;-71
2022/08/04 00:11:00;;;;;;;10.65;5.05;;;;;;;28.99;39.05;101084.16;5025030;27;98622;-71
2022/08/04 00:13:30;;;;;;;13.20;5.38;;;;;;;28.82;39.44;101077.78;5030213;28;98949;-72
2022/08/04 00:15:59;;;;;;;11.73;5.35;;;;;;;28.84;39.25;101073.91;5029415;27;99025;-71
2022/08/04 00:18:30;;;;;;;10.77;5.57;;;;;;;28.79;39.21;101078.13;5024603;28;96930;-71
2022/08/04 00:21:04;;;;;;;9.35;4.95;;;;;;;28.61;39.38;101074.63;5029116;28;97040;-71
2022/08/04 00:23:34;;;;;;;11.25;5.93;;;;;;;28.78;39.20;101071.84;5026614;28;99232;-71
2022/08/04 00:26:02;;;;;;;13.35;5.05;;;;;;;28.69;39.46;101074.66;5030753;28;98745;-71
2022/08/04 00:28:29;;;;;;;11.70;5.38;;;;;;;28.59;39.66;101066.63;5027858;28;97151;-72
2022/08/04 00:30:56;;;;;;;8.65;4.32;;;;;;;28.61;39.62;101072.78;5029818;27;96821;-71
2022/08/04 00:33:22;;;;;;;15.15;5.22;;;;;;;28.60;39.81;101068.34;5030298;28;98940;-71
2022/08/04 00:35:50;;;;;;;13.48;5.18;;;;;;;28.70;39.71;101073.63;5027377;28;98984;-71
2022/08/04 00:38:18;;;;;;;8.52;4.90;;;;;;;28.56;40.24;101077.81;5028906;28;97021;-71
2022/08/04 00:40:55;;;;;;;14.82;5.20;;;;;;;28.54;39.94;101083.44;5032750;27;97310;-71
2022/08/04 00:43:31;;;;;;;8.68;4.75;;;;;;;28.65;39.68;101065.97;5029841;27;99418;-69
2022/08/04 00:46:25;;;;;;;9.45;4.40;;;;;;;28.43;39.77;101080.13;5028342;27;98973;-69
2022/08/04 00:49:11;;;;;;;8.98;4.80;;;;;;;28.74;39.50;101083.19;5025078;28;97179;-69
2022/08/04 00:51:46;;;;;;;15.05;4.95;;;;;;;28.67;39.55;101077.56;5025592;28;97181;-69
2022/08/04 00:54:22;;;;;;;9.02;4.68;;;;;;;28.93;38.87;101075.66;5031369;27;97631;-69
2022/08/04 00:57:03;;;;;;;9.23;4.77;;;;;;;28.69;39.37;101072.78;5031135;28;98895;-70
2022/08/04 00:59:44;;;;;;;6.95;4.32;;;;;;;28.67;39.49;101080.28;5031308;28;97609;-69
2022/08/04 01:02:23;;;;;;;9.60;5.22;;;;;;;28.52;39.99;101074.59;5030000;28;97253;-68
2022/08/04 01:05:02;;;;;;;15.73;5.28;;;;;;;28.45;40.87;101075.41;5031525;28;99347;-68
2022/08/04 01:07:43;;;;;;;13.60;5.60;;;;;;;28.39;41.45;101070.59;5029063;27;99053;-69
2022/08/04 01:10:17;;;;;;;9.00;4.93;;;;;;;28.41;41.66;101077.59;5030173;27;96926;-69
2022/08/04 01:13:01;;;;;;;9.60;4.60;;;;;;;28.41;41.37;101079.47;5028675;28;96836;-69
2022/08/04 01:15:37;;;;;;;10.00;5.57;;;;;;;28.44;41.11;101079.13;5027973;28;97900;-69
2022/08/04 01:18:05;;;;;;;8.15;4.57;;;;;;;28.46;40.56;101068.94;5029615;28;98385;-69
2022/08/04 01:20:34;;;;;;;9.23;5.35;;;;;;;28.51;40.26;101074.75;5029783;28;97438;-68
2022/08/04 01:23:19;;;;;;;13.02;5.15;;;;;;;28.36;40.24;101070.91;5030053;28;97220;-68
2022/08/04 01:26:18;;;;;;;9.25;4.63;;;;;;;28.34;40.44;101072.97;5031607;28;99414;-68
2022/08/04 01:29:03;;;;;;;10.70;5.07;;;;;;;28.28;40.84;101069.03;5026677;28;98181;-68
2022/08/04 01:31:39;;;;;;;7.38;4.82;;;;;;;28.29;40.99;101070.72;5030120;28;97232;-70
2022/08/04 01:34:08;;;;;;;8.00;4.72;;;;;;;28.32;40.80;101066.81;5031441;27;97083;-70
2022/08/04 01:36:35;;;;;;;9.88;4.55;;;;;;;28.38;39.94;101067.03;5027139;28;97757;-70
2022/08/04 01:39:39;;;;;;;12.30;4.68;;;;;;;28.13;40.26;101067.88;5030354;27;98394;-70
2022/08/04 01:41:52;;;;;;;6.22;4.15;;;;;;;28.09;40.60;101066.50;5028165;28;96928;-70
2022/08/04 01:44:21;;;;;;;10.05;4.68;;;;;;;27.99;40.91;101073.88;5031315;27;97349;-70
2022/08/04 01:46:50;;;;;;;8.57;4.05;;;;;;;28.02;40.71;101079.00;5030722;28;101042;-70
2022/08/04 01:49:17;;;;;;;7.50;4.50;;;;;;;28.02;40.74;101077.16;5031183;27;98760;-70
2022/08/04 01:51:45;;;;;;;6.97;4.07;;;;;;;28.08;40.70;101073.81;5030597;28;96648;-71
2022/08/04 01:54:15;;;;;;;7.15;4.47;;;;;;;28.05;40.62;101068.66;5031857;27;97658;-70
2022/08/04 01:56:43;;;;;;;9.18;4.00;;;;;;;28.04;40.40;101074.25;5027267;28;98876;-70
2022/08/04 01:59:14;;;;;;;10.90;4.07;;;;;;;27.92;40.88;101072.81;5031874;27;99068;-70
2022/08/04 02:01:42;;;;;;;6.55;4.18;;;;;;;27.92;40.73;101079.09;5031869;27;96989;-70
2022/08/04 02:04:13;;;;;;;7.95;4.03;;;;;;;27.79;40.93;101078.66;5032256;27;96832;-70
2022/08/04 02:06:49;;;;;;;8.60;4.30;;;;;;;27.87;41.04;101070.59;5018529;28;99468;-69
2022/08/04 02:09:23;;;;;;;12.20;4.90;;;;;;;27.82;41.23;101074.78;5029600;28;99432;-69
2022/08/04 02:12:02;;;;;;;5.45;4.05;;;;;;;27.75;41.61;101066.41;5027657;27;98670;-70
2022/08/04 02:14:44;;;;;;;11.25;3.95;;;;;;;27.64;42.14;101063.94;5033108;28;96789;-69
2022/08/04 02:17:15;;;;;;;10.30;4.75;;;;;;;27.63;42.15;101065.81;5030097;28;102638;-69
2022/08/04 02:20:03;;;;;;;8.65;4.70;;;;;;;27.50;42.10;101062.63;5026797;27;99577;-69
2022/08/04 02:22:33;;;;;;;7.25;4.45;;;;;;;27.76;41.39;101068.13;5027025;28;97793;-69
2022/08/04 02:25:06;;;;;;;6.30;3.95;;;;;;;27.58;41.65;101065.41;5032372;27;96812;-70
2022/08/04 02:27:50;;;;;;;15.38;5.00;;;;;;;27.57;41.69;101062.88;5030967;28;98755;-69
2022/08/04 02:30:18;;;;;;;8.80;4.35;;;;;;;27.65;41.50;101060.22;5029519;28;99288;-69
2022/08/04 02:32:48;;;;;;;10.93;5.22;;;;;;;27.59;41.74;101058.13;5030486;27;96880;-68
2022/08/04 02:35:20;;;;;;;10.60;4.75;;;;;;;27.64;41.69;101058.50;5032476;28;96778;-68
2022/08/04 02:37:48;;;;;;;12.25;4.80;;;;;;;27.53;41.59;101056.91;5031041;27;99051;-68
2022/08/04 02:40:19;;;;;;;13.57;4.72;;;;;;;27.60;41.35;101051.69;5030095;28;98921;-69
2022/08/04 02:42:46;;;;;;;6.07;4.63;;;;;;;27.52;41.55;101048.91;5029995;28;96754;-69
2022/08/04 02:45:13;;;;;;;9.15;4.53;;;;;;;27.51;41.70;101047.16;5032411;27;96866;-69
2022/08/04 02:47:40;;;;;;;7.32;4.50;;;;;;;27.14;42.61;101045.47;5029955;28;99380;-69
2022/08/04 02:50:12;;;;;;;9.25;5.25;;;;;;;27.38;42.35;101042.13;5030291;28;101465;-69
2022/08/04 02:52:40;;;;;;;9.07;4.35;;;;;;;27.36;42.33;101039.59;5029893;27;98784;-69
2022/08/04 02:55:11;;;;;;;13.65;5.05;;;;;;;27.28;42.82;101042.22;5031715;27;97474;-69
2022/08/04 02:57:39;;;;;;;11.65;4.78;;;;;;;27.32;42.55;101042.75;5029565;28;98935;-70
2022/08/04 03:00:09;;;;;;;8.65;4.40;;;;;;;27.35;42.24;101050.59;5027994;27;101376;-70
2022/08/04 03:02:50;;;;;;;11.45;4.72;;;;;;;27.13;42.80;101054.59;5030926;28;97426;-71
2022/08/04 03:05:21;;;;;;;7.88;4.13;;;;;;;27.26;42.77;101043.38;5032045;28;97234;-70
2022/08/04 03:08:07;;;;;;;8.90;4.40;;;;;;;27.13;43.01;101051.91;5024790;28;98998;-70
2022/08/04 03:10:59;;;;;;;11.90;4.28;;;;;;;27.12;43.09;101055.63;5027952;28;98797;-70
2022/08/04 03:13:56;;;;;;;10.93;4.18;;;;;;;27.10;43.17;101063.06;5029941;28;96966;-71
2022/08/04 03:16:35;;;;;;;11.15;4.38;;;;;;;27.30;42.51;101059.22;5030246;27;97113;-71
2022/08/04 03:19:42;;;;;;;11.95;4.78;;;;;;;27.32;42.39;101056.31;5028212;27;101152;-70
2022/08/04 03:22:28;;;;;;;10.43;4.70;;;;;;;27.23;42.80;101054.56;5028121;28;99117;-70
2022/08/04 03:25:29;;;;;;;10.75;5.60;;;;;;;27.15;42.34;101058.03;5029282;28;98080;-70
2022/08/04 03:28:23;;;;;;;6.75;4.43;;;;;;;27.15;42.49;101062.59;5026387;28;98501;-71
2022/08/04 03:31:10;;;;;;;6.95;4.30;;;;;;;27.19;42.54;101055.84;5029824;28;99287;-71
2022/08/04 03:33:47;;;;;;;6.38;4.40;;;;;;;27.41;41.76;101049.97;5030533;28;99354;-71
2022/08/04 03:36:39;;;;;;;6.50;4.15;;;;;;;27.36;42.00;101041.44;5028749;28;97220;-70
2022/08/04 03:39:36;;;;;;;11.52;4.80;;;;;;;27.11;42.47;101048.47;5034699;27;98892;-71
2022/08/04 03:42:11;;;;;;;;;;;;;;;27.08;42.55;101056.94;5030049;27;99335;-71
2022/08/04 03:45:12;;;;;;;6.60;4.22;;;;;;;27.14;42.49;101045.47;5031655;27;99403;-71
2022/08/04 03:48:07;;;;;;;6.45;4.45;;;;;;;27.04;42.42;101055.56;5024936;28;96785;-71
2022/08/04 03:53:46;;;;;;;7.68;4.95;;;;;;;27.29;41.99;101045.78;5027561;27;97705;-71
2022/08/04 03:56:40;;;;;;;9.48;5.10;;;;;;;27.41;41.77;101049.13;5030942;28;98982;-71
2022/08/04 03:59:24;;;;;;;12.07;4.70;;;;;;;27.25;41.95;101050.66;5027900;28;97761;-72
2022/08/04 04:02:04;;;;;;;6.07;4.05;;;;;;;27.12;42.00;101052.03;5028642;28;96918;-72
2022/08/04 04:04:46;;;;;;;9.18;4.55;;;;;;;27.23;42.51;101055.41;5026962;28;99379;-72
2022/08/04 04:07:48;;;;;;;9.05;4.45;;;;;;;27.14;42.88;101055.47;5029714;27;98990;-73
2022/08/04 04:10:50;;;;;;;4.63;3.85;;;;;;;26.94;44.07;101049.31;5028039;28;97257;-73
2022/08/04 04:13:30;;;;;;;7.60;4.15;;;;;;;27.08;43.25;101051.50;5004526;27;97087;-72
2022/08/04 04:16:13;;;;;;;8.18;4.40;;;;;;;27.36;42.01;101050.44;5030033;27;99305;-73
2022/08/04 04:18:57;;;;;;;10.75;4.15;;;;;;;27.18;42.29;101049.56;5026765;28;97794;-71
2022/08/04 04:21:35;;;;;;;6.43;3.58;;;;;;;27.27;42.06;101045.94;5020257;28;97231;-72
2022/08/04 04:24:16;;;;;;;5.65;4.10;;;;;;;27.43;41.76;101044.41;5026776;28;96708;-71
2022/08/04 04:26:54;;;;;;;13.98;4.40;;;;;;;27.52;41.78;101051.63;5029603;27;99133;-72
2022/08/04 04:29:48;;;;;;;8.75;4.05;;;;;;;27.67;41.38;101058.19;5031667;28;98178;-70
2022/08/04 04:32:22;;;;;;;6.78;4.18;;;;;;;27.83;40.44;101050.16;5029141;28;97197;-70
2022/08/04 04:35:04;;;;;;;11.15;4.28;;;;;;;27.85;40.66;101056.31;5034264;27;96703;-70
2022/08/04 04:37:48;;;;;;;6.95;4.18;;;;;;;28.01;40.29;101061.00;5032309;28;99016;-71
2022/08/04 04:40:28;;;;;;;14.13;4.57;;;;;;;28.13;39.84;101059.72;5032588;28;99360;-71
2022/08/04 04:43:20;;;;;;;8.32;4.25;;;;;;;28.01;40.25;101058.28;5027628;28;98886;-71
2022/08/04 04:45:57;;;;;;;10.70;4.38;;;;;;;28.24;39.82;101064.06;5031857;28;97370;-71
2022/08/04 04:48:34;;;;;;;8.73;3.85;;;;;;;28.58;38.29;101059.50;5029476;28;99233;-71
2022/08/04 04:51:13;;;;;;;12.52;4.22;;;;;;;28.40;38.64;101067.72;5031007;28;98935;-70
2022/08/04 04:53:51;;;;;;;12.70;4.63;;;;;;;28.88;38.05;101060.84;5030390;28;98974;-70
2022/08/04 04:56:27;;;;;;;9.27;4.60;;;;;;;28.85;37.52;101064.72;5033152;28;97815;-70
2022/08/04 04:58:55;;;;;;;11.45;4.70;;;;;;;28.81;37.40;101066.09;5031976;27;99571;-70
2022/08/04 05:01:46;;;;;;;14.07;4.88;;;;;;;28.89;36.91;101068.81;5029298;28;98891;-70
2022/08/04 05:04:35;;;;;;;9.23;4.55;;;;;;;28.75;37.16;101072.16;5032590;28;97300;-71
2022/08/04 05:07:18;;;;;;;6.10;4.20;;;;;;;28.85;36.88;101062.00;5030516;28;98904;-71
2022/08/04 05:09:59;;;;;;;8.55;4.55;;;;;;;29.08;36.64;101064.13;5032241;27;99126;-71
2022/08/04 05:12:42;;;;;;;6.20;4.65;;;;;;;29.15;36.06;101059.69;5030771;27;101276;-71
2022/08/04 05:15:11;;;;;;;11.73;5.38;;;;;;;29.19;36.08;101061.94;5030560;28;97447;-71
2022/08/04 05:17:45;;;;;;;8.52;4.18;;;;;;;29.10;36.28;101062.06;5028987;28;98673;-71
2022/08/04 05:20:20;;;;;;;11.50;4.75;;;;;;;29.42;36.30;101055.84;5026949;28;99370;-71
2022/08/04 05:22:52;;;;;;;14.82;5.65;;;;;;;29.38;36.25;101058.06;5030108;27;99174;-70
2022/08/04 05:25:22;;;;;;;10.02;5.38;;;;;;;29.40;35.88;101064.22;5033472;27;96945;-71
2022/08/04 05:27:54;;;;;;;7.63;5.03;;;;;;;29.75;35.72;101070.31;5028977;28;97097;-70
2022/08/04 05:30:24;;;;;;;17.45;4.63;;;;;;;29.74;35.10;101066.75;5031143;28;97797;-72
2022/08/04 05:32:59;;;;;;;15.75;4.97;;;;;;;29.87;35.32;101063.50;5032230;27;99206;-72
2022/08/04 05:35:30;;;;;;;23.23;5.47;;;;;;;30.04;35.14;101060.66;5029124;28;97073;-70
2022/08/04 05:37:59;;;;;;;17.50;6.13;;;;;;;30.02;34.85;101062.69;5032438;27;97119;-71
2022/08/04 05:40:26;;;;;;;7.03;4.90;;;;;;;30.13;34.95;101066.09;5025378;28;98958;-71
2022/08/04 05:42:55;;;;;;;10.57;4.82;;;;;;;30.38;34.05;101073.19;5030367;27;99675;-71
2022/08/04 05:45:23;;;;;;;10.65;4.85;;;;;;;30.29;34.06;101069.59;5031448;27;97376;-70
2022/08/04 05:47:51;;;;;;;8.88;4.75;;;;;;;30.40;33.77;101077.41;5031420;28;96858;-71
2022/08/04 05:50:19;;;;;;;11.30;4.78;;;;;;;30.24;34.43;101066.56;5029919;27;98878;-72
2022/08/04 05:52:47;;;;;;;16.42;5.45;;;;;;;30.60;33.69;101071.56;5032146;28;99046;-69
2022/08/04 05:55:15;;;;;;;12.85;7.07;;;;;;;30.67;33.75;101069.84;5030115;28;98295;-71
2022/08/04 05:57:43;;;;;;;8.55;5.57;;;;;;;30.57;34.16;101071.94;5032861;28;97261;-70
2022/08/04 06:00:11;;;;;;;8.40;4.97;;;;;;;30.90;33.83;101068.06;5029749;28;99260;-69
2022/08/04 06:02:39;;;;;;;11.70;4.55;;;;;;;31.05;33.83;101069.00;5024510;28;99245;-69
2022/08/04 06:05:07;;;;;;;13.00;4.35;;;;;;;31.25;33.92;101072.97;5030806;27;97245;-70
2022/08/04 06:07:34;;;;;;;7.65;4.80;;;;;;;31.33;33.76;101074.81;5032177;28;96793;-69
2022/08/04 06:10:04;;;;;;;12.18;5.18;;;;;;;31.33;33.72;101073.94;5028866;27;98010;-72
2022/08/04 06:12:37;;;;;;;15.57;5.18;;;;;;;31.49;32.93;101073.84;5030209;27;99205;-70
2022/08/04 06:15:06;;;;;;;8.43;4.47;;;;;;;31.66;32.59;101064.50;5027382;27;97754;-70
2022/08/04 06:17:40;;;;;;;17.20;5.43;;;;;;;31.40;32.67;101067.59;5024765;27;98329;-69
2022/08/04 06:20:09;;;;;;;9.07;4.72;;;;;;;31.76;32.30;101070.59;5025397;27;99390;-69
2022/08/04 06:22:41;;;;;;;10.80;5.18;;;;;;;31.66;31.91;101069.97;5031136;27;99077;-69
2022/08/04 06:25:10;;;;;;;18.67;4.03;;;;;;;31.45;31.33;101070.59;5024330;27;98900;-69
2022/08/04 06:27:37;;;;;;;24.38;4.40;;;;;;;31.59;31.39;101077.16;5032431;27;97317;-69
2022/08/04 06:30:08;;;;;;;51.28;7.93;;;;;;;31.73;30.92;101075.53;5026533;27;98843;-69
2022/08/04 06:32:46;;;;;;;11.13;5.05;;;;;;;31.77;30.84;101075.00;5031857;27;98846;-69
2022/08/04 06:35:15;;;;;;;7.22;3.80;;;;;;;31.77;30.50;101076.91;5027899;27;97829;-69
2022/08/04 06:37:44;;;;;;;7.25;4.35;;;;;;;31.85;29.93;101074.91;5027441;27;97302;-69
2022/08/04 06:40:13;;;;;;;9.70;4.38;;;;;;;32.00;30.11;101078.53;5023884;27;99050;-70
2022/08/04 06:42:40;;;;;;;15.63;4.60;;;;;;;32.30;29.60;101081.34;5026582;27;99018;-70
2022/08/04 06:45:09;;;;;;;22.75;5.65;;;;;;;32.39;29.70;101081.06;5026667;27;98468;-70
2022/08/04 06:47:37;;;;;;;10.07;4.22;;;;;;;32.46;29.52;101078.44;5025350;27;97717;-70
2022/08/04 06:50:06;;;;;;;7.95;4.47;;;;;;;32.72;29.07;101077.97;5026705;27;98989;-69
2022/08/04 06:52:32;;;;;;;9.20;3.65;;;;;;;33.17;28.10;101074.94;5027135;27;101804;-69
2022/08/04 06:55:00;;;;;;;7.68;3.80;;;;;;;33.43;27.81;101079.03;5024312;27;96784;-68
2022/08/04 06:57:30;;;;;;;7.15;4.00;;;;;;;33.49;27.54;101072.78;5028148;27;97718;-66
2022/08/04 07:00:00;;;;;;;14.30;5.15;;;;;;;33.66;27.83;101073.38;5027817;27;101690;-68
2022/08/04 07:02:30;;;;;;;17.63;4.28;;;;;;;33.27;28.42;101076.56;5027372;27;100444;-69
2022/08/04 07:04:57;;;;;;;7.88;3.80;;;;;;;33.47;27.77;101069.41;5029861;27;97415;-69
2022/08/04 07:07:24;;;;;;;9.20;3.80;;;;;;;33.36;27.94;101065.28;5024816;27;97579;-68
2022/08/04 07:09:51;;;;;;;8.93;3.65;;;;;;;33.39;27.64;101069.53;5026216;27;99327;-68
2022/08/04 07:12:20;;;;;;;15.82;3.80;;;;;;;33.71;27.67;101062.69;5027631;27;101441;-68
2022/08/04 07:14:47;;;;;;;9.93;3.90;;;;;;;33.98;27.24;101075.56;5028260;28;97312;-68
2022/08/04 07:17:15;;;;;;;7.72;3.97;;;;;;;34.25;26.47;101069.28;5029886;27;96968;-68
2022/08/04 07:19:43;;;;;;;15.38;4.28;;;;;;;34.30;26.67;101066.75;5023507;27;99223;-69
2022/08/04 07:22:10;;;;;;;15.60;4.20;;;;;;;34.80;26.56;101064.72;5026873;27;98774;-69
2022/08/04 07:24:37;;;;;;;6.28;4.25;;;;;;;34.87;26.13;101070.25;5027493;27;98149;-68
2022/08/04 07:27:06;;;;;;;5.78;3.47;;;;;;;34.90;25.79;101072.59;5024227;27;97103;-69
2022/08/04 07:29:35;;;;;;;10.27;3.80;;;;;;;34.96;24.80;101064.38;5022269;27;99652;-68
2022/08/04 07:32:01;;;;;;;10.18;3.22;;;;;;;34.89;25.07;101063.50;5023481;27;98594;-68
2022/08/04 07:34:29;;;;;;;9.30;3.83;;;;;;;34.97;25.26;101062.47;5027377;27;98164;-69
2022/08/04 07:36:57;;;;;;;8.02;3.60;;;;;;;35.15;24.96;101055.34;5023656;27;97168;-68
2022/08/04 07:39:26;;;;;;;11.80;3.58;;;;;;;35.10;24.92;101060.63;5023986;27;99485;-68
2022/08/04 07:41:53;;;;;;;9.13;3.63;;;;;;;35.06;24.86;101064.81;5025050;27;99452;-68
2022/08/04 07:44:20;;;;;;;9.98;3.17;;;;;;;34.89;25.18;101069.00;5027040;27;96866;-69
2022/08/04 07:46:48;;;;;;;10.68;3.22;;;;;;;34.90;25.14;101061.59;5024732;28;97539;-69
2022/08/04 07:49:15;;;;;;;5.93;3.10;;;;;;;35.17;25.57;101056.00;5028225;27;99389;-67
2022/08/04 07:51:41;;;;;;;7.18;3.05;;;;;;;35.36;24.99;101059.03;5026253;27;98125;-67
2022/08/04 07:54:09;;;;;;;6.47;3.00;;;;;;;35.58;24.70;101054.19;5027854;27;97983;-69
2022/08/04 07:56:38;;;;;;;9.00;2.90;;;;;;;35.43;25.04;101054.38;5025101;27;97708;-69
2022/08/04 07:59:05;;;;;;;3.30;2.90;;;;;;;35.50;24.81;101058.00;5023842;27;98859;-69
2022/08/04 08:01:32;;;;;;;11.35;3.55;;;;;;;35.43;25.00;101055.22;5025581;27;99048;-69
2022/08/04 08:04:01;;;;;;;7.70;2.80;;;;;;;35.61;24.17;101053.75;5014590;27;97612;-68
2022/08/04 08:06:28;;;;;;;5.10;2.60;;;;;;;36.04;23.87;101045.97;5029908;27;97998;-67
2022/08/04 08:08:55;;;;;;;4.63;2.90;;;;;;;35.87;24.13;101045.53;5022851;27;98961;-68
2022/08/04 08:11:22;;;;;;;11.23;2.83;;;;;;;35.86;23.89;101046.59;5021547;27;98957;-68
2022/08/04 08:13:49;;;;;;;5.65;2.58;;;;;;;35.77;24.10;101045.13;5027980;27;99001;-67
2022/08/04 08:16:17;;;;;;;3.13;2.80;;;;;;;35.91;24.36;101042.16;5025665;27;98579;-67
2022/08/04 08:18:43;;;;;;;6.45;2.80;;;;;;;35.66;24.22;101041.06;5026681;27;99664;-68
2022/08/04 08:21:11;;;;;;;8.57;3.50;;;;;;;35.71;24.35;101038.56;5026095;27;97956;-68
2022/08/04 08:23:38;;;;;;;4.95;2.67;;;;;;;35.95;23.46;101032.44;5028763;27;96919;-68
2022/08/04 08:26:05;;;;;;;9.93;3.70;;;;;;;36.34;23.27;101036.19;5029568;27;98543;-68
2022/08/04 08:28:32;;;;;;;10.07;3.40;;;;;;;36.73;22.83;101033.31;5026900;27;99160;-68
2022/08/04 08:30:58;;;;;;;5.72;2.67;;;;;;;36.53;22.83;101032.53;5024690;27;98931;-67
2022/08/04 08:33:25;;;;;;;5.65;2.67;;;;;;;36.49;22.73;101031.28;5027277;27;97042;-68
2022/08/04 08:36:01;;;;;;;5.47;3.65;;;;;;;36.20;22.85;101029.03;5027872;27;97302;-68
2022/08/04 08:38:40;;;;;;;9.20;3.05;;;;;;;36.25;23.00;101027.31;5025175;27;99202;-68
2022/08/04 08:41:40;;;;;;;5.35;2.70;;;;;;;36.16;23.37;101023.09;5024129;27;98790;-68
2022/08/04 08:44:33;;;;;;;5.97;2.83;;;;;;;36.15;23.51;101026.03;5014304;27;97471;-67
2022/08/04 08:47:09;;;;;;;10.70;2.90;;;;;;;36.18;23.11;101025.63;5023972;27;98977;-67
2022/08/04 08:49:59;;;;;;;8.02;3.00;;;;;;;36.52;22.88;101029.97;5022998;27;101081;-69
2022/08/04 08:52:39;;;;;;;6.13;2.65;;;;;;;36.63;22.84;101021.88;5026383;27;99178;-68
2022/08/04 08:55:20;;;;;;;17.95;3.42;;;;;;;36.69;22.83;101018.28;5025122;27;97192;-68
2022/08/04 08:57:59;;;;;;;9.55;2.65;;;;;;;36.92;22.38;101017.75;5026417;27;97348;-68
2022/08/04 09:00:33;;;;;;;9.93;2.97;;;;;;;36.92;22.68;101023.28;5021554;27;99212;-68
2022/08/04 09:03:38;;;;;;;13.65;3.45;;;;;;;36.90;22.61;101019.88;5027960;27;98840;-67
2022/08/04 09:06:23;;;;;;;6.43;3.13;;;;;;;37.02;22.27;101015.34;5026088;27;97051;-68
2022/08/04 09:09:27;;;;;;;11.70;2.78;;;;;;;37.19;22.31;101024.00;5020441;27;98646;-68
2022/08/04 09:12:07;;;;;;;6.85;3.20;;;;;;;37.19;22.29;101018.47;5004364;27;99299;-68
2022/08/04 09:14:42;;;;;;;6.65;3.30;;;;;;;37.32;22.20;101021.13;5031986;27;98868;-67
2022/08/04 09:17:18;;;;;;;13.10;3.17;;;;;;;37.39;22.32;101012.81;5025779;27;97076;-70
2022/08/04 09:19:52;;;;;;;14.63;3.38;;;;;;;37.33;22.31;101013.72;5030085;27;98225;-68
2022/08/04 09:22:22;;;;;;;2.97;2.58;;;;;;;37.07;22.28;101021.06;5027735;27;98948;-68
2022/08/04 09:24:53;;;;;;;6.30;2.97;;;;;;;37.29;21.72;101016.06;5029410;27;99493;-68
2022/08/04 09:27:28;;;;;;;10.27;2.60;;;;;;;37.32;21.76;101015.63;5024699;27;97003;-67
2022/08/04 09:30:02;;;;;;;13.38;3.22;;;;;;;37.51;21.76;101019.28;5027063;27;97844;-73
2022/08/04 09:32:40;;;;;;;4.78;2.60;;;;;;;37.35;21.08;101011.59;5031076;27;100376;-70
2022/08/04 09:35:17;;;;;;;7.03;2.63;;;;;;;37.38;20.29;101009.22;5029534;27;99207;-70
2022/08/04 09:37:54;;;;;;;3.80;2.90;;;;;;;37.66;20.40;101010.72;5029383;27;97113;-72
2022/08/04 09:40:27;;;;;;;3.88;2.35;;;;;;;37.65;20.09;101011.78;5028602;27;96923;-72
2022/08/04 09:43:05;;;;;;;4.93;2.35;;;;;;;37.90;20.10;101009.84;5032058;27;99075;-69
2022/08/04 09:45:36;;;;;;;6.78;2.42;;;;;;;37.80;20.33;101006.78;5030593;27;98782;-70
2022/08/04 09:48:08;;;;;;;9.32;2.45;;;;;;;37.60;21.01;101008.88;5029517;27;97104;-70
2022/08/04 09:50:37;;;;;;;4.80;2.30;;;;;;;37.60;20.70;101003.38;5026986;27;96824;-70
2022/08/04 09:53:13;;;;;;;3.30;2.47;;;;;;;37.82;20.67;101004.63;5025787;27;99333;-71
2022/08/04 09:55:54;;;;;;;2.90;2.40;;;;;;;37.76;21.17;100998.09;5029073;27;98518;-72
2022/08/04 09:58:33;;;;;;;2.40;2.20;;;;;;;37.76;21.54;101000.03;5026606;27;96892;-71
2022/08/04 10:01:02;;;;;;;12.25;3.10;;;;;;;37.84;21.40;100997.81;5030090;27;96797;-69
2022/08/04 10:03:32;;;;;;;6.22;2.65;;;;;;;37.94;21.26;100996.47;5028685;27;98765;-70
2022/08/04 10:06:10;;;;;;;10.18;3.30;;;;;;;37.98;21.24;101000.44;5030043;27;98317;-69
2022/08/04 10:09:06;;;;;;;3.97;2.67;;;;;;;37.87;21.06;100994.63;5037573;27;97965;-70
2022/08/04 10:11:52;;;;;;;3.28;2.03;;;;;;;38.13;20.73;100982.50;5026265;27;97134;-70
2022/08/04 10:14:35;;;;;;;28.17;3.83;;;;;;;38.00;21.31;100988.13;5032033;27;101983;-69
2022/08/04 10:17:15;;;;;;;4.18;2.70;;;;;;;37.74;20.73;100982.88;5032036;27;98813;-69
2022/08/04 10:19:42;;;;;;;7.22;2.90;;;;;;;37.79;20.73;100991.31;5030025;27;97968;-69
2022/08/04 10:22:14;;;;;;;5.65;2.00;;;;;;;37.88;20.39;100981.66;5032742;27;96872;-70
2022/08/04 10:24:53;;;;;;;5.47;2.42;;;;;;;37.85;21.01;100980.22;5029702;27;99144;-69
2022/08/04 10:27:27;;;;;;;3.67;2.05;;;;;;;37.88;20.63;100982.50;5032707;27;101709;-69
2022/08/04 10:30:02;;;;;;;2.60;2.08;;;;;;;37.89;20.41;100980.59;5030360;27;96895;-69
2022/08/04 10:32:34;;;;;;;10.27;1.93;;;;;;;37.81;20.30;100975.38;5030571;27;96876;-71
2022/08/04 10:35:09;;;;;;;5.68;2.20;;;;;;;37.43;20.76;100972.72;5025872;27;98344;-70
2022/08/04 10:37:42;;;;;;;4.82;1.95;;;;;;;37.39;20.47;100961.31;5025551;27;98898;-70
2022/08/04 10:43:01;;;;;;;4.85;2.53;;;;;;;37.68;20.61;100961.72;5019300;27;97976;-69
2022/08/04 10:45:36;;;;;;;7.22;2.20;;;;;;;37.59;20.77;100969.44;5027778;27;98987;-70
2022/08/04 10:48:07;;;;;;;9.80;2.20;;;;;;;37.41;21.12;100967.44;5028394;27;99584;-70
2022/08/04 10:50:37;;;;;;;5.82;2.63;;;;;;;37.64;20.70;100960.47;5024127;27;97141;-69
2022/08/04 10:53:09;;;;;;;8.25;2.30;;;;;;;37.75;20.77;100963.31;5025284;27;97180;-70
2022/08/04 10:55:40;;;;;;;4.88;2.10;;;;;;;37.42;20.84;100958.09;5027837;27;100883;-70
2022/08/04 10:58:13;;;;;;;8.75;2.13;;;;;;;37.50;20.98;100955.06;5028419;27;98882;-70
2022/08/04 11:00:45;;;;;;;6.75;2.65;;;;;;;37.66;20.57;100952.84;5023800;27;97652;-70
2022/08/04 11:03:19;;;;;;;4.18;2.20;;;;;;;37.57;20.37;100948.63;5031344;27;97112;-70
2022/08/04 11:05:49;;;;;;;7.82;1.90;;;;;;;37.75;20.67;100948.69;5030266;27;98958;-70
2022/08/04 11:08:17;;;;;;;7.15;2.55;;;;;;;37.80;20.48;100959.91;5028192;27;99245;-70
2022/08/04 11:10:48;;;;;;;3.22;2.20;;;;;;;37.85;20.21;100936.09;5025033;27;97387;-70
2022/08/04 11:13:17;;;;;;;2.95;2.03;;;;;;;38.15;20.39;100947.22;5027291;27;97685;-69
2022/08/04 11:15:54;;;;;;;5.93;2.60;;;;;;;37.82;20.21;100944.81;5028243;27;99061;-70
2022/08/04 11:18:26;;;;;;;10.23;2.60;;;;;;;37.90;20.44;100938.16;5028454;27;99410;-69
2022/08/04 11:20:58;;;;;;;6.15;2.35;;;;;;;37.85;20.31;100929.72;5025386;27;97757;-72
2022/08/04 11:23:29;;;;;;;5.55;2.10;;;;;;;38.22;20.40;100930.59;5031314;27;96841;-69
2022/08/04 11:26:00;;;;;;;3.72;2.10;;;;;;;38.31;20.28;100934.72;5029963;27;100701;-71
2022/08/04 11:28:46;;;;;;;2.72;2.20;;;;;;;38.34;20.21;100939.75;5033597;27;100692;-69
2022/08/04 11:31:21;;;;;;;2.97;2.17;;;;;;;38.29;20.16;100923.91;5024549;27;99524;-69
2022/08/04 11:33:54;;;;;;;3.70;2.33;;;;;;;38.25;19.64;100930.97;5027001;27;97906;-70
2022/08/04 11:36:24;;;;;;;12.40;2.17;;;;;;;38.17;19.72;100939.56;5025975;27;99318;-70
2022/08/04 11:38:59;;;;;;;10.48;3.05;;;;;;;38.42;19.39;100935.84;5026989;27;98661;-70
2022/08/04 11:41:48;;;;;;;5.57;2.20;;;;;;;38.41;19.23;100925.88;5027014;27;97412;-71
2022/08/04 11:44:29;;;;;;;8.20;3.00;;;;;;;38.48;19.24;100930.28;5026888;27;96921;-69
2022/08/04 11:47:02;;;;;;;6.43;2.85;;;;;;;38.40;18.82;100933.31;5029025;27;99258;-70
2022/08/04 11:49:34;;;;;;;4.22;2.60;;;;;;;38.51;18.98;100928.97;5021803;27;98763;-70
2022/08/04 11:52:03;;;;;;;9.20;2.67;;;;;;;38.73;19.49;100926.56;5021903;27;97255;-69
2022/08/04 11:54:31;;;;;;;8.27;2.40;;;;;;;39.03;18.89;100924.63;5028019;27;97251;-69
2022/08/04 11:56:58;;;;;;;6.40;2.30;;;;;;;39.28;18.60;100918.88;5026557;27;99172;-69
2022/08/04 11:59:26;;;;;;;8.00;2.50;;;;;;;39.18;18.63;100918.66;5027885;27;99056;-70
2022/08/04 12:02:07;;;;;;;3.75;2.40;;;;;;;39.36;18.65;100918.56;5026962;27;96866;-69